sensor_id;sensor_type;location;lat;lon;timestamp;P1;durP1;ratioP1;P2;durP2;ratioP2
11125;SDS011;5617;54.046;10.676;2023-03-14T00:00:24;7.07;;;2.00;;
11125;SDS011;5617;54.046;10.676;2023-03-14T00:02:32;4.37;;;1.60;;
11125;SDS011;5617;54.046;10.676;2023-03-14T00:04:40;5.87;;;1.90;;
11125;SDS011;5617;54.046;10.676;2023-03-14T00:06:48;5.07;;;1.73;;
11125;SDS011;5617;54.046;10.676;2023-03-14T00:08:55;5.87;;;1.63;;
11125;SDS011;5617;54.046;10.676;2023-03-14T00:11:04;5.13;;;1.73;;
11125;SDS011;5617;54.046;10.676;2023-03-14T00:13:14;8.03;;;1.93;;
11125;SDS011;5617;54.046;10.676;2023-03-14T00:15:22;7.30;;;2.20;;
11125;SDS011;5617;54.046;10.676;2023-03-14T00:17:32;4.80;;;1.83;;
11125;SDS011;5617;54.046;10.676;2023-03-14T00:19:40;5.93;;;1.70;;
11125;SDS011;5617;54.046;10.676;2023-03-14T00:21:48;5.33;;;1.70;;
11125;SDS011;5617;54.046;10.676;2023-03-14T00:23:56;5.37;;;2.20;;
11125;SDS011;5617;54.046;10.676;2023-03-14T00:26:07;6.27;;;1.93;;
11125;SDS011;5617;54.046;10.676;2023-03-14T00:28:17;3.50;;;1.50;;
11125;SDS011;5617;54.046;10.676;2023-03-14T00:30:24;6.97;;;2.47;;
11125;SDS011;5617;54.046;10.676;2023-03-14T00:32:33;6.77;;;1.80;;
11125;SDS011;5617;54.046;10.676;2023-03-14T00:34:42;4.90;;;2.13;;
11125;SDS011;5617;54.046;10.676;2023-03-14T00:36:51;4.97;;;2.07;;
11125;SDS011;5617;54.046;10.676;2023-03-14T00:38:59;4.60;;;1.83;;
11125;SDS011;5617;54.046;10.676;2023-03-14T00:41:07;5.00;;;1.67;;
11125;SDS011;5617;54.046;10.676;2023-03-14T00:43:16;6.80;;;1.93;;
11125;SDS011;5617;54.046;10.676;2023-03-14T00:45:24;5.87;;;1.97;;
11125;SDS011;5617;54.046;10.676;2023-03-14T00:47:33;4.87;;;1.67;;
11125;SDS011;5617;54.046;10.676;2023-03-14T00:49:41;8.17;;;2.07;;
11125;SDS011;5617;54.046;10.676;2023-03-14T00:51:49;6.57;;;2.30;;
11125;SDS011;5617;54.046;10.676;2023-03-14T00:53:59;8.00;;;2.47;;
11125;SDS011;5617;54.046;10.676;2023-03-14T00:56:08;3.07;;;1.40;;
11125;SDS011;5617;54.046;10.676;2023-03-14T00:58:17;9.67;;;1.90;;
11125;SDS011;5617;54.046;10.676;2023-03-14T01:00:25;5.33;;;2.07;;
11125;SDS011;5617;54.046;10.676;2023-03-14T01:02:34;9.90;;;2.20;;
11125;SDS011;5617;54.046;10.676;2023-03-14T01:04:42;4.57;;;1.70;;
11125;SDS011;5617;54.046;10.676;2023-03-14T01:06:50;8.80;;;2.10;;
11125;SDS011;5617;54.046;10.676;2023-03-14T01:08:57;6.03;;;1.80;;
11125;SDS011;5617;54.046;10.676;2023-03-14T01:11:07;8.40;;;2.10;;
11125;SDS011;5617;54.046;10.676;2023-03-14T01:13:15;7.30;;;2.33;;
11125;SDS011;5617;54.046;10.676;2023-03-14T01:15:23;4.17;;;1.43;;
11125;SDS011;5617;54.046;10.676;2023-03-14T01:17:31;9.63;;;2.43;;
11125;SDS011;5617;54.046;10.676;2023-03-14T01:19:40;7.00;;;1.57;;
11125;SDS011;5617;54.046;10.676;2023-03-14T01:21:48;5.57;;;1.93;;
11125;SDS011;5617;54.046;10.676;2023-03-14T01:23:56;4.60;;;1.50;;
11125;SDS011;5617;54.046;10.676;2023-03-14T01:26:07;6.37;;;2.00;;
11125;SDS011;5617;54.046;10.676;2023-03-14T01:28:15;6.60;;;2.10;;
11125;SDS011;5617;54.046;10.676;2023-03-14T01:30:23;6.13;;;2.23;;
11125;SDS011;5617;54.046;10.676;2023-03-14T01:32:32;4.83;;;1.80;;
11125;SDS011;5617;54.046;10.676;2023-03-14T01:34:42;2.30;;;1.70;;
11125;SDS011;5617;54.046;10.676;2023-03-14T01:36:50;6.00;;;2.13;;
11125;SDS011;5617;54.046;10.676;2023-03-14T01:38:57;4.20;;;2.00;;
11125;SDS011;5617;54.046;10.676;2023-03-14T01:41:05;5.50;;;1.93;;
11125;SDS011;5617;54.046;10.676;2023-03-14T01:43:15;6.00;;;1.77;;
11125;SDS011;5617;54.046;10.676;2023-03-14T01:48:19;4.07;;;1.67;;
11125;SDS011;5617;54.046;10.676;2023-03-14T01:50:28;6.97;;;1.93;;
11125;SDS011;5617;54.046;10.676;2023-03-14T01:52:36;4.10;;;1.70;;
11125;SDS011;5617;54.046;10.676;2023-03-14T01:54:49;4.67;;;1.80;;
11125;SDS011;5617;54.046;10.676;2023-03-14T01:57:01;4.63;;;1.80;;
11125;SDS011;5617;54.046;10.676;2023-03-14T01:59:12;4.90;;;2.00;;
11125;SDS011;5617;54.046;10.676;2023-03-14T02:01:20;4.27;;;2.10;;
11125;SDS011;5617;54.046;10.676;2023-03-14T02:03:31;5.33;;;1.60;;
11125;SDS011;5617;54.046;10.676;2023-03-14T02:05:46;5.50;;;2.00;;
11125;SDS011;5617;54.046;10.676;2023-03-14T02:07:55;7.23;;;1.97;;
11125;SDS011;5617;54.046;10.676;2023-03-14T02:10:05;8.63;;;2.10;;
11125;SDS011;5617;54.046;10.676;2023-03-14T02:12:15;6.57;;;2.23;;
11125;SDS011;5617;54.046;10.676;2023-03-14T02:14:26;6.70;;;2.73;;
11125;SDS011;5617;54.046;10.676;2023-03-14T02:16:37;3.90;;;1.77;;
11125;SDS011;5617;54.046;10.676;2023-03-14T02:18:45;6.60;;;1.90;;
11125;SDS011;5617;54.046;10.676;2023-03-14T02:20:55;6.60;;;2.10;;
11125;SDS011;5617;54.046;10.676;2023-03-14T02:23:07;4.13;;;1.70;;
11125;SDS011;5617;54.046;10.676;2023-03-14T02:25:16;6.60;;;1.80;;
11125;SDS011;5617;54.046;10.676;2023-03-14T02:27:29;6.30;;;2.03;;
11125;SDS011;5617;54.046;10.676;2023-03-14T02:29:39;8.90;;;2.33;;
11125;SDS011;5617;54.046;10.676;2023-03-14T02:31:52;6.57;;;1.80;;
11125;SDS011;5617;54.046;10.676;2023-03-14T02:34:00;6.03;;;1.77;;
11125;SDS011;5617;54.046;10.676;2023-03-14T02:36:10;6.83;;;2.20;;
11125;SDS011;5617;54.046;10.676;2023-03-14T02:38:20;7.73;;;2.10;;
11125;SDS011;5617;54.046;10.676;2023-03-14T02:40:31;9.33;;;2.23;;
11125;SDS011;5617;54.046;10.676;2023-03-14T02:42:40;6.17;;;1.80;;
11125;SDS011;5617;54.046;10.676;2023-03-14T02:44:49;8.60;;;2.17;;
11125;SDS011;5617;54.046;10.676;2023-03-14T02:46:58;6.57;;;1.90;;
11125;SDS011;5617;54.046;10.676;2023-03-14T02:49:07;3.97;;;1.67;;
11125;SDS011;5617;54.046;10.676;2023-03-14T02:51:17;7.17;;;2.23;;
11125;SDS011;5617;54.046;10.676;2023-03-14T02:53:25;8.03;;;1.87;;
11125;SDS011;5617;54.046;10.676;2023-03-14T02:55:35;5.17;;;2.00;;
11125;SDS011;5617;54.046;10.676;2023-03-14T02:57:47;5.10;;;1.83;;
11125;SDS011;5617;54.046;10.676;2023-03-14T02:59:57;5.03;;;2.13;;
11125;SDS011;5617;54.046;10.676;2023-03-14T03:02:11;7.57;;;2.47;;
11125;SDS011;5617;54.046;10.676;2023-03-14T03:04:18;3.70;;;1.73;;
11125;SDS011;5617;54.046;10.676;2023-03-14T03:06:26;5.33;;;2.10;;
11125;SDS011;5617;54.046;10.676;2023-03-14T03:08:34;8.03;;;2.07;;
11125;SDS011;5617;54.046;10.676;2023-03-14T03:10:41;5.13;;;1.93;;
11125;SDS011;5617;54.046;10.676;2023-03-14T03:12:50;3.83;;;2.00;;
11125;SDS011;5617;54.046;10.676;2023-03-14T03:14:58;6.47;;;1.80;;
11125;SDS011;5617;54.046;10.676;2023-03-14T03:17:06;2.70;;;1.60;;
11125;SDS011;5617;54.046;10.676;2023-03-14T03:19:14;4.53;;;2.10;;
11125;SDS011;5617;54.046;10.676;2023-03-14T03:21:23;4.97;;;2.17;;
11125;SDS011;5617;54.046;10.676;2023-03-14T03:23:31;6.13;;;2.27;;
11125;SDS011;5617;54.046;10.676;2023-03-14T03:25:39;6.73;;;2.47;;
11125;SDS011;5617;54.046;10.676;2023-03-14T03:27:47;4.37;;;1.90;;
11125;SDS011;5617;54.046;10.676;2023-03-14T03:29:56;5.37;;;2.00;;
11125;SDS011;5617;54.046;10.676;2023-03-14T03:32:03;4.53;;;2.10;;
11125;SDS011;5617;54.046;10.676;2023-03-14T03:34:11;4.70;;;2.07;;
11125;SDS011;5617;54.046;10.676;2023-03-14T03:36:21;4.57;;;2.10;;
11125;SDS011;5617;54.046;10.676;2023-03-14T03:38:29;7.33;;;2.20;;
11125;SDS011;5617;54.046;10.676;2023-03-14T03:40:37;3.03;;;2.20;;
11125;SDS011;5617;54.046;10.676;2023-03-14T03:42:45;3.93;;;2.40;;
11125;SDS011;5617;54.046;10.676;2023-03-14T03:44:53;4.37;;;2.70;;
11125;SDS011;5617;54.046;10.676;2023-03-14T03:47:02;4.87;;;2.03;;
11125;SDS011;5617;54.046;10.676;2023-03-14T03:49:10;3.93;;;2.07;;
11125;SDS011;5617;54.046;10.676;2023-03-14T03:51:18;4.30;;;2.10;;
11125;SDS011;5617;54.046;10.676;2023-03-14T03:53:26;4.67;;;2.20;;
11125;SDS011;5617;54.046;10.676;2023-03-14T03:55:34;2.97;;;2.30;;
11125;SDS011;5617;54.046;10.676;2023-03-14T03:57:41;5.13;;;2.30;;
11125;SDS011;5617;54.046;10.676;2023-03-14T03:59:49;3.67;;;2.30;;
11125;SDS011;5617;54.046;10.676;2023-03-14T04:01:57;4.67;;;2.63;;
11125;SDS011;5617;54.046;10.676;2023-03-14T04:04:06;4.87;;;2.00;;
11125;SDS011;5617;54.046;10.676;2023-03-14T04:06:14;3.40;;;2.07;;
11125;SDS011;5617;54.046;10.676;2023-03-14T04:08:22;5.50;;;2.30;;
11125;SDS011;5617;54.046;10.676;2023-03-14T04:10:29;6.23;;;2.63;;
11125;SDS011;5617;54.046;10.676;2023-03-14T04:12:37;5.50;;;2.47;;
11125;SDS011;5617;54.046;10.676;2023-03-14T04:14:45;7.27;;;2.53;;
11125;SDS011;5617;54.046;10.676;2023-03-14T04:16:52;3.90;;;2.37;;
11125;SDS011;5617;54.046;10.676;2023-03-14T04:19:00;4.20;;;2.70;;
11125;SDS011;5617;54.046;10.676;2023-03-14T04:21:09;4.40;;;2.40;;
11125;SDS011;5617;54.046;10.676;2023-03-14T04:23:17;3.80;;;2.43;;
11125;SDS011;5617;54.046;10.676;2023-03-14T04:25:24;3.50;;;2.50;;
11125;SDS011;5617;54.046;10.676;2023-03-14T04:27:32;3.03;;;2.40;;
11125;SDS011;5617;54.046;10.676;2023-03-14T04:29:40;4.37;;;2.63;;
11125;SDS011;5617;54.046;10.676;2023-03-14T04:31:47;4.87;;;2.20;;
11125;SDS011;5617;54.046;10.676;2023-03-14T04:33:55;4.47;;;2.40;;
11125;SDS011;5617;54.046;10.676;2023-03-14T04:36:03;2.80;;;1.90;;
11125;SDS011;5617;54.046;10.676;2023-03-14T04:38:13;6.10;;;2.60;;
11125;SDS011;5617;54.046;10.676;2023-03-14T04:40:23;5.60;;;2.63;;
11125;SDS011;5617;54.046;10.676;2023-03-14T04:42:31;4.10;;;2.27;;
11125;SDS011;5617;54.046;10.676;2023-03-14T04:44:38;4.43;;;2.33;;
11125;SDS011;5617;54.046;10.676;2023-03-14T04:46:46;4.30;;;2.40;;
11125;SDS011;5617;54.046;10.676;2023-03-14T04:48:54;4.00;;;2.30;;
11125;SDS011;5617;54.046;10.676;2023-03-14T04:51:02;6.30;;;2.50;;
11125;SDS011;5617;54.046;10.676;2023-03-14T04:53:15;4.50;;;2.30;;
11125;SDS011;5617;54.046;10.676;2023-03-14T04:55:23;4.53;;;2.60;;
11125;SDS011;5617;54.046;10.676;2023-03-14T04:57:31;7.57;;;3.10;;
11125;SDS011;5617;54.046;10.676;2023-03-14T04:59:39;5.83;;;2.53;;
11125;SDS011;5617;54.046;10.676;2023-03-14T05:01:46;3.37;;;2.03;;
11125;SDS011;5617;54.046;10.676;2023-03-14T05:03:55;5.17;;;2.10;;
11125;SDS011;5617;54.046;10.676;2023-03-14T05:06:03;4.43;;;2.63;;
11125;SDS011;5617;54.046;10.676;2023-03-14T05:08:12;4.23;;;2.70;;
11125;SDS011;5617;54.046;10.676;2023-03-14T05:10:21;3.87;;;2.27;;
11125;SDS011;5617;54.046;10.676;2023-03-14T05:12:28;3.40;;;2.33;;
11125;SDS011;5617;54.046;10.676;2023-03-14T05:14:36;4.37;;;2.47;;
11125;SDS011;5617;54.046;10.676;2023-03-14T05:16:45;4.67;;;2.57;;
11125;SDS011;5617;54.046;10.676;2023-03-14T05:18:53;3.47;;;2.17;;
11125;SDS011;5617;54.046;10.676;2023-03-14T05:21:00;2.83;;;2.30;;
11125;SDS011;5617;54.046;10.676;2023-03-14T05:23:08;3.83;;;1.53;;
11125;SDS011;5617;54.046;10.676;2023-03-14T05:25:16;1.40;;;1.30;;
11125;SDS011;5617;54.046;10.676;2023-03-14T05:27:26;2.57;;;1.17;;
11125;SDS011;5617;54.046;10.676;2023-03-14T05:29:33;0.97;;;0.50;;
11125;SDS011;5617;54.046;10.676;2023-03-14T05:31:41;0.73;;;0.53;;
11125;SDS011;5617;54.046;10.676;2023-03-14T05:33:49;2.20;;;0.60;;
11125;SDS011;5617;54.046;10.676;2023-03-14T05:35:57;1.10;;;0.60;;
11125;SDS011;5617;54.046;10.676;2023-03-14T05:38:05;1.47;;;0.80;;
11125;SDS011;5617;54.046;10.676;2023-03-14T05:40:12;1.47;;;0.60;;
11125;SDS011;5617;54.046;10.676;2023-03-14T05:42:20;0.73;;;0.50;;
11125;SDS011;5617;54.046;10.676;2023-03-14T05:44:29;1.67;;;0.90;;
11125;SDS011;5617;54.046;10.676;2023-03-14T05:46:37;1.73;;;0.77;;
11125;SDS011;5617;54.046;10.676;2023-03-14T05:48:45;1.30;;;0.90;;
11125;SDS011;5617;54.046;10.676;2023-03-14T05:50:54;1.07;;;0.60;;
11125;SDS011;5617;54.046;10.676;2023-03-14T05:53:02;2.83;;;0.90;;
11125;SDS011;5617;54.046;10.676;2023-03-14T05:55:10;2.97;;;0.70;;
11125;SDS011;5617;54.046;10.676;2023-03-14T05:57:18;2.47;;;0.90;;
11125;SDS011;5617;54.046;10.676;2023-03-14T05:59:26;1.77;;;0.87;;
11125;SDS011;5617;54.046;10.676;2023-03-14T06:01:35;1.70;;;0.60;;
11125;SDS011;5617;54.046;10.676;2023-03-14T06:03:42;1.10;;;0.70;;
11125;SDS011;5617;54.046;10.676;2023-03-14T06:05:50;2.53;;;1.13;;
11125;SDS011;5617;54.046;10.676;2023-03-14T06:07:58;3.40;;;1.20;;
11125;SDS011;5617;54.046;10.676;2023-03-14T06:10:06;1.60;;;0.90;;
11125;SDS011;5617;54.046;10.676;2023-03-14T06:12:14;2.10;;;0.77;;
11125;SDS011;5617;54.046;10.676;2023-03-14T06:14:23;1.00;;;1.00;;
11125;SDS011;5617;54.046;10.676;2023-03-14T06:16:30;3.00;;;1.30;;
11125;SDS011;5617;54.046;10.676;2023-03-14T06:18:40;3.43;;;1.17;;
11125;SDS011;5617;54.046;10.676;2023-03-14T06:20:47;2.47;;;1.10;;
11125;SDS011;5617;54.046;10.676;2023-03-14T06:22:55;1.33;;;0.90;;
11125;SDS011;5617;54.046;10.676;2023-03-14T06:25:03;2.47;;;1.10;;
11125;SDS011;5617;54.046;10.676;2023-03-14T06:27:11;1.97;;;1.07;;
11125;SDS011;5617;54.046;10.676;2023-03-14T06:29:19;3.40;;;1.33;;
11125;SDS011;5617;54.046;10.676;2023-03-14T06:31:26;1.50;;;1.03;;
11125;SDS011;5617;54.046;10.676;2023-03-14T06:33:34;2.63;;;1.13;;
11125;SDS011;5617;54.046;10.676;2023-03-14T06:35:48;1.93;;;0.83;;
11125;SDS011;5617;54.046;10.676;2023-03-14T06:37:56;1.73;;;1.10;;
11125;SDS011;5617;54.046;10.676;2023-03-14T06:40:05;1.10;;;1.00;;
11125;SDS011;5617;54.046;10.676;2023-03-14T06:42:14;1.27;;;1.17;;
11125;SDS011;5617;54.046;10.676;2023-03-14T06:44:22;1.40;;;1.30;;
11125;SDS011;5617;54.046;10.676;2023-03-14T06:46:32;3.57;;;1.20;;
11125;SDS011;5617;54.046;10.676;2023-03-14T06:48:39;3.00;;;1.00;;
11125;SDS011;5617;54.046;10.676;2023-03-14T06:50:48;1.33;;;0.90;;
11125;SDS011;5617;54.046;10.676;2023-03-14T06:52:58;4.60;;;1.50;;
11125;SDS011;5617;54.046;10.676;2023-03-14T06:55:06;1.90;;;1.50;;
11125;SDS011;5617;54.046;10.676;2023-03-14T06:57:15;2.17;;;1.30;;
11125;SDS011;5617;54.046;10.676;2023-03-14T06:59:22;2.30;;;1.33;;
11125;SDS011;5617;54.046;10.676;2023-03-14T07:01:30;1.53;;;1.27;;
11125;SDS011;5617;54.046;10.676;2023-03-14T07:03:40;3.43;;;1.60;;
11125;SDS011;5617;54.046;10.676;2023-03-14T07:05:50;3.87;;;1.50;;
11125;SDS011;5617;54.046;10.676;2023-03-14T07:07:58;4.50;;;1.20;;
11125;SDS011;5617;54.046;10.676;2023-03-14T07:10:08;1.57;;;1.47;;
11125;SDS011;5617;54.046;10.676;2023-03-14T07:12:16;3.70;;;1.77;;
11125;SDS011;5617;54.046;10.676;2023-03-14T07:14:24;2.33;;;1.60;;
11125;SDS011;5617;54.046;10.676;2023-03-14T07:16:31;3.63;;;2.00;;
11125;SDS011;5617;54.046;10.676;2023-03-14T07:18:39;3.20;;;1.80;;
11125;SDS011;5617;54.046;10.676;2023-03-14T07:20:48;2.73;;;2.07;;
11125;SDS011;5617;54.046;10.676;2023-03-14T07:22:57;2.57;;;1.60;;
11125;SDS011;5617;54.046;10.676;2023-03-14T07:25:06;2.80;;;1.70;;
11125;SDS011;5617;54.046;10.676;2023-03-14T07:27:15;2.87;;;1.80;;
11125;SDS011;5617;54.046;10.676;2023-03-14T07:29:23;5.23;;;1.87;;
11125;SDS011;5617;54.046;10.676;2023-03-14T07:31:34;2.50;;;1.83;;
11125;SDS011;5617;54.046;10.676;2023-03-14T07:33:41;3.07;;;1.50;;
11125;SDS011;5617;54.046;10.676;2023-03-14T07:35:51;3.17;;;1.80;;
11125;SDS011;5617;54.046;10.676;2023-03-14T07:37:58;2.20;;;1.63;;
11125;SDS011;5617;54.046;10.676;2023-03-14T07:40:06;2.07;;;1.37;;
11125;SDS011;5617;54.046;10.676;2023-03-14T07:42:16;2.77;;;1.70;;
11125;SDS011;5617;54.046;10.676;2023-03-14T07:44:24;2.13;;;1.67;;
11125;SDS011;5617;54.046;10.676;2023-03-14T07:46:31;1.73;;;1.53;;
11125;SDS011;5617;54.046;10.676;2023-03-14T07:48:39;4.47;;;1.73;;
11125;SDS011;5617;54.046;10.676;2023-03-14T07:50:48;2.37;;;1.40;;
11125;SDS011;5617;54.046;10.676;2023-03-14T07:52:57;3.37;;;1.80;;
11125;SDS011;5617;54.046;10.676;2023-03-14T07:55:05;2.40;;;1.30;;
11125;SDS011;5617;54.046;10.676;2023-03-14T07:57:13;3.33;;;1.87;;
11125;SDS011;5617;54.046;10.676;2023-03-14T07:59:21;4.30;;;2.13;;
11125;SDS011;5617;54.046;10.676;2023-03-14T08:01:29;2.07;;;1.80;;
11125;SDS011;5617;54.046;10.676;2023-03-14T08:03:37;3.47;;;1.80;;
11125;SDS011;5617;54.046;10.676;2023-03-14T08:05:46;2.37;;;2.10;;
11125;SDS011;5617;54.046;10.676;2023-03-14T08:07:55;2.10;;;1.70;;
11125;SDS011;5617;54.046;10.676;2023-03-14T08:10:05;2.33;;;1.73;;
11125;SDS011;5617;54.046;10.676;2023-03-14T08:12:13;2.23;;;2.00;;
11125;SDS011;5617;54.046;10.676;2023-03-14T08:14:22;2.43;;;1.93;;
11125;SDS011;5617;54.046;10.676;2023-03-14T08:16:30;1.80;;;1.60;;
11125;SDS011;5617;54.046;10.676;2023-03-14T08:18:37;5.07;;;2.23;;
11125;SDS011;5617;54.046;10.676;2023-03-14T08:20:45;1.83;;;1.73;;
11125;SDS011;5617;54.046;10.676;2023-03-14T08:22:54;5.37;;;2.63;;
11125;SDS011;5617;54.046;10.676;2023-03-14T08:25:05;2.53;;;2.33;;
11125;SDS011;5617;54.046;10.676;2023-03-14T08:27:13;4.23;;;2.57;;
11125;SDS011;5617;54.046;10.676;2023-03-14T08:29:21;1.53;;;1.43;;
11125;SDS011;5617;54.046;10.676;2023-03-14T08:31:29;6.60;;;3.00;;
11125;SDS011;5617;54.046;10.676;2023-03-14T08:33:36;3.23;;;2.10;;
11125;SDS011;5617;54.046;10.676;2023-03-14T08:35:44;4.97;;;2.20;;
11125;SDS011;5617;54.046;10.676;2023-03-14T08:37:52;4.53;;;2.10;;
11125;SDS011;5617;54.046;10.676;2023-03-14T08:40:00;4.60;;;2.50;;
11125;SDS011;5617;54.046;10.676;2023-03-14T08:42:13;4.03;;;1.93;;
11125;SDS011;5617;54.046;10.676;2023-03-14T08:44:21;2.77;;;1.97;;
11125;SDS011;5617;54.046;10.676;2023-03-14T08:46:28;3.80;;;2.50;;
11125;SDS011;5617;54.046;10.676;2023-03-14T08:48:36;3.17;;;2.40;;
11125;SDS011;5617;54.046;10.676;2023-03-14T08:50:44;1.67;;;1.37;;
11125;SDS011;5617;54.046;10.676;2023-03-14T08:52:52;4.10;;;2.30;;
11125;SDS011;5617;54.046;10.676;2023-03-14T08:55:00;2.17;;;1.60;;
11125;SDS011;5617;54.046;10.676;2023-03-14T08:57:08;4.17;;;2.40;;
11125;SDS011;5617;54.046;10.676;2023-03-14T08:59:17;3.53;;;2.03;;
11125;SDS011;5617;54.046;10.676;2023-03-14T09:01:25;2.80;;;2.27;;
11125;SDS011;5617;54.046;10.676;2023-03-14T09:03:32;3.80;;;1.70;;
11125;SDS011;5617;54.046;10.676;2023-03-14T09:05:40;2.80;;;1.93;;
11125;SDS011;5617;54.046;10.676;2023-03-14T09:07:48;2.40;;;1.93;;
11125;SDS011;5617;54.046;10.676;2023-03-14T09:09:56;2.83;;;2.07;;
11125;SDS011;5617;54.046;10.676;2023-03-14T09:12:04;1.83;;;1.70;;
11125;SDS011;5617;54.046;10.676;2023-03-14T09:14:12;3.30;;;1.90;;
11125;SDS011;5617;54.046;10.676;2023-03-14T09:16:21;2.00;;;1.03;;
11125;SDS011;5617;54.046;10.676;2023-03-14T09:18:29;2.27;;;1.70;;
11125;SDS011;5617;54.046;10.676;2023-03-14T09:20:37;4.93;;;2.10;;
11125;SDS011;5617;54.046;10.676;2023-03-14T09:22:46;2.10;;;1.47;;
11125;SDS011;5617;54.046;10.676;2023-03-14T09:24:55;3.17;;;1.73;;
11125;SDS011;5617;54.046;10.676;2023-03-14T09:27:02;3.10;;;1.77;;
11125;SDS011;5617;54.046;10.676;2023-03-14T09:29:10;3.80;;;2.53;;
11125;SDS011;5617;54.046;10.676;2023-03-14T09:31:20;2.90;;;2.30;;
11125;SDS011;5617;54.046;10.676;2023-03-14T09:33:30;3.90;;;2.13;;
11125;SDS011;5617;54.046;10.676;2023-03-14T09:35:37;5.40;;;2.63;;
11125;SDS011;5617;54.046;10.676;2023-03-14T09:37:45;4.63;;;2.67;;
11125;SDS011;5617;54.046;10.676;2023-03-14T09:39:53;3.53;;;2.60;;
11125;SDS011;5617;54.046;10.676;2023-03-14T09:42:01;3.20;;;2.07;;
11125;SDS011;5617;54.046;10.676;2023-03-14T09:44:13;2.97;;;1.90;;
11125;SDS011;5617;54.046;10.676;2023-03-14T09:46:24;3.93;;;2.20;;
11125;SDS011;5617;54.046;10.676;2023-03-14T09:48:33;4.30;;;1.30;;
11125;SDS011;5617;54.046;10.676;2023-03-14T09:50:42;1.97;;;1.77;;
11125;SDS011;5617;54.046;10.676;2023-03-14T09:52:53;3.40;;;1.70;;
11125;SDS011;5617;54.046;10.676;2023-03-14T09:55:04;2.53;;;1.70;;
11125;SDS011;5617;54.046;10.676;2023-03-14T09:57:14;2.87;;;1.70;;
11125;SDS011;5617;54.046;10.676;2023-03-14T09:59:24;4.43;;;1.37;;
11125;SDS011;5617;54.046;10.676;2023-03-14T10:01:34;2.47;;;1.17;;
11125;SDS011;5617;54.046;10.676;2023-03-14T10:03:42;2.30;;;1.90;;
11125;SDS011;5617;54.046;10.676;2023-03-14T10:05:52;4.50;;;1.50;;
11125;SDS011;5617;54.046;10.676;2023-03-14T10:08:02;0.97;;;0.77;;
11125;SDS011;5617;54.046;10.676;2023-03-14T10:10:13;1.27;;;0.63;;
11125;SDS011;5617;54.046;10.676;2023-03-14T10:12:30;1.73;;;0.50;;
11125;SDS011;5617;54.046;10.676;2023-03-14T10:14:44;0.93;;;0.40;;
11125;SDS011;5617;54.046;10.676;2023-03-14T10:16:54;1.53;;;0.40;;
11125;SDS011;5617;54.046;10.676;2023-03-14T10:19:13;1.50;;;0.50;;
11125;SDS011;5617;54.046;10.676;2023-03-14T10:21:25;1.03;;;0.40;;
11125;SDS011;5617;54.046;10.676;2023-03-14T10:23:35;0.70;;;0.40;;
11125;SDS011;5617;54.046;10.676;2023-03-14T10:25:45;1.30;;;0.47;;
11125;SDS011;5617;54.046;10.676;2023-03-14T10:28:10;0.90;;;0.40;;
11125;SDS011;5617;54.046;10.676;2023-03-14T10:30:33;2.47;;;0.57;;
11125;SDS011;5617;54.046;10.676;2023-03-14T10:32:51;0.60;;;0.50;;
11125;SDS011;5617;54.046;10.676;2023-03-14T10:35:07;1.97;;;0.70;;
11125;SDS011;5617;54.046;10.676;2023-03-14T10:37:28;1.07;;;0.50;;
11125;SDS011;5617;54.046;10.676;2023-03-14T10:39:37;0.90;;;0.50;;
11125;SDS011;5617;54.046;10.676;2023-03-14T10:41:50;1.37;;;0.70;;
11125;SDS011;5617;54.046;10.676;2023-03-14T10:44:00;1.23;;;0.60;;
11125;SDS011;5617;54.046;10.676;2023-03-14T10:46:09;3.13;;;0.70;;
11125;SDS011;5617;54.046;10.676;2023-03-14T10:48:23;1.30;;;0.47;;
11125;SDS011;5617;54.046;10.676;2023-03-14T10:50:37;3.60;;;0.57;;
11125;SDS011;5617;54.046;10.676;2023-03-14T10:52:52;2.00;;;0.40;;
11125;SDS011;5617;54.046;10.676;2023-03-14T10:55:01;0.63;;;0.30;;
11125;SDS011;5617;54.046;10.676;2023-03-14T10:57:18;1.23;;;0.40;;
11125;SDS011;5617;54.046;10.676;2023-03-14T10:59:27;0.83;;;0.43;;
11125;SDS011;5617;54.046;10.676;2023-03-14T11:01:41;1.07;;;0.43;;
11125;SDS011;5617;54.046;10.676;2023-03-14T11:03:57;0.20;;;0.20;;
11125;SDS011;5617;54.046;10.676;2023-03-14T11:06:09;0.77;;;0.40;;
11125;SDS011;5617;54.046;10.676;2023-03-14T11:08:23;0.33;;;0.30;;
11125;SDS011;5617;54.046;10.676;2023-03-14T11:10:35;1.20;;;0.50;;
11125;SDS011;5617;54.046;10.676;2023-03-14T11:12:50;1.43;;;0.43;;
11125;SDS011;5617;54.046;10.676;2023-03-14T11:15:10;1.67;;;0.60;;
11125;SDS011;5617;54.046;10.676;2023-03-14T11:17:27;1.20;;;0.50;;
11125;SDS011;5617;54.046;10.676;2023-03-14T11:22:19;1.40;;;0.70;;
11125;SDS011;5617;54.046;10.676;2023-03-14T11:24:39;1.67;;;0.60;;
11125;SDS011;5617;54.046;10.676;2023-03-14T11:26:55;2.87;;;0.70;;
11125;SDS011;5617;54.046;10.676;2023-03-14T11:29:12;2.53;;;0.83;;
11125;SDS011;5617;54.046;10.676;2023-03-14T11:31:28;1.73;;;0.80;;
11125;SDS011;5617;54.046;10.676;2023-03-14T11:33:37;2.17;;;0.70;;
11125;SDS011;5617;54.046;10.676;2023-03-14T11:35:49;3.40;;;1.00;;
11125;SDS011;5617;54.046;10.676;2023-03-14T11:38:05;2.20;;;0.93;;
11125;SDS011;5617;54.046;10.676;2023-03-14T11:40:20;4.47;;;0.87;;
11125;SDS011;5617;54.046;10.676;2023-03-14T11:42:30;3.23;;;0.90;;
11125;SDS011;5617;54.046;10.676;2023-03-14T11:44:39;2.67;;;0.90;;
11125;SDS011;5617;54.046;10.676;2023-03-14T11:46:53;2.20;;;0.80;;
11125;SDS011;5617;54.046;10.676;2023-03-14T11:49:08;2.50;;;0.90;;
11125;SDS011;5617;54.046;10.676;2023-03-14T11:51:27;3.30;;;0.80;;
11125;SDS011;5617;54.046;10.676;2023-03-14T11:53:43;1.13;;;0.60;;
11125;SDS011;5617;54.046;10.676;2023-03-14T11:55:56;2.97;;;0.73;;
11125;SDS011;5617;54.046;10.676;2023-03-14T11:58:09;1.93;;;0.77;;
11125;SDS011;5617;54.046;10.676;2023-03-14T12:00:22;4.63;;;1.00;;
11125;SDS011;5617;54.046;10.676;2023-03-14T12:02:33;2.60;;;0.77;;
11125;SDS011;5617;54.046;10.676;2023-03-14T12:04:50;2.20;;;1.00;;
11125;SDS011;5617;54.046;10.676;2023-03-14T12:07:04;3.50;;;0.83;;
11125;SDS011;5617;54.046;10.676;2023-03-14T12:09:20;1.83;;;0.77;;
11125;SDS011;5617;54.046;10.676;2023-03-14T12:11:32;2.17;;;0.70;;
11125;SDS011;5617;54.046;10.676;2023-03-14T12:13:45;2.27;;;0.70;;
11125;SDS011;5617;54.046;10.676;2023-03-14T12:15:55;2.90;;;0.83;;
11125;SDS011;5617;54.046;10.676;2023-03-14T12:18:11;3.10;;;1.33;;
11125;SDS011;5617;54.046;10.676;2023-03-14T12:20:26;5.57;;;1.03;;
11125;SDS011;5617;54.046;10.676;2023-03-14T12:22:36;4.03;;;0.80;;
11125;SDS011;5617;54.046;10.676;2023-03-14T12:24:51;3.73;;;0.90;;
11125;SDS011;5617;54.046;10.676;2023-03-14T12:27:03;1.87;;;0.90;;
11125;SDS011;5617;54.046;10.676;2023-03-14T12:29:15;3.93;;;0.90;;
11125;SDS011;5617;54.046;10.676;2023-03-14T12:31:37;4.43;;;1.00;;
11125;SDS011;5617;54.046;10.676;2023-03-14T12:34:00;3.93;;;0.87;;
11125;SDS011;5617;54.046;10.676;2023-03-14T12:39:05;3.17;;;0.97;;
11125;SDS011;5617;54.046;10.676;2023-03-14T12:41:20;5.10;;;0.93;;
11125;SDS011;5617;54.046;10.676;2023-03-14T12:43:32;4.30;;;1.20;;
11125;SDS011;5617;54.046;10.676;2023-03-14T12:45:41;5.73;;;1.47;;
11125;SDS011;5617;54.046;10.676;2023-03-14T12:48:08;3.20;;;1.17;;
11125;SDS011;5617;54.046;10.676;2023-03-14T12:50:19;6.07;;;1.03;;
11125;SDS011;5617;54.046;10.676;2023-03-14T12:52:33;4.13;;;1.40;;
11125;SDS011;5617;54.046;10.676;2023-03-14T12:55:00;4.17;;;1.00;;
11125;SDS011;5617;54.046;10.676;2023-03-14T12:57:15;4.40;;;1.20;;
11125;SDS011;5617;54.046;10.676;2023-03-14T12:59:34;5.13;;;1.07;;
11125;SDS011;5617;54.046;10.676;2023-03-14T13:01:46;5.83;;;1.10;;
11125;SDS011;5617;54.046;10.676;2023-03-14T13:04:02;4.50;;;1.03;;
11125;SDS011;5617;54.046;10.676;2023-03-14T13:09:02;4.47;;;1.00;;
11125;SDS011;5617;54.046;10.676;2023-03-14T13:12:00;6.57;;;1.00;;
11125;SDS011;5617;54.046;10.676;2023-03-14T13:14:09;9.13;;;1.20;;